sensor_id;sensor_type;location;lat;lon;timestamp;P1;durP1;ratioP1;P2;durP2;ratioP2
22480;SDS011;11407;56.964;-2.212;2024-03-02T00:01:56;3.83;;;1.33;;
22480;SDS011;11407;56.964;-2.212;2024-03-02T00:04:21;5.50;;;1.30;;
22480;SDS011;11407;56.964;-2.212;2024-03-02T00:06:47;12.00;;;4.57;;
22480;SDS011;11407;56.964;-2.212;2024-03-02T00:09:12;11.37;;;6.07;;
22480;SDS011;11407;56.964;-2.212;2024-03-02T00:11:38;8.97;;;5.33;;
22480;SDS011;11407;56.964;-2.212;2024-03-02T00:14:04;11.27;;;6.57;;
22480;SDS011;11407;56.964;-2.212;2024-03-02T00:16:30;11.70;;;6.70;;
22480;SDS011;11407;56.964;-2.212;2024-03-02T00:18:55;5.83;;;2.90;;
22480;SDS011;11407;56.964;-2.212;2024-03-02T00:21:24;6.80;;;2.90;;
22480;SDS011;11407;56.964;-2.212;2024-03-02T00:23:50;4.50;;;2.43;;
22480;SDS011;11407;56.964;-2.212;2024-03-02T00:26:17;3.20;;;2.13;;
22480;SDS011;11407;56.964;-2.212;2024-03-02T00:28:42;2.57;;;1.83;;
22480;SDS011;11407;56.964;-2.212;2024-03-02T00:33:37;6.10;;;4.20;;
22480;SDS011;11407;56.964;-2.212;2024-03-02T00:36:05;4.30;;;1.80;;
22480;SDS011;11407;56.964;-2.212;2024-03-02T00:38:31;4.17;;;1.90;;
22480;SDS011;11407;56.964;-2.212;2024-03-02T00:40:58;5.80;;;2.70;;
22480;SDS011;11407;56.964;-2.212;2024-03-02T00:45:49;4.17;;;1.97;;
22480;SDS011;11407;56.964;-2.212;2024-03-02T00:48:15;3.70;;;2.80;;
22480;SDS011;11407;56.964;-2.212;2024-03-02T00:50:40;3.20;;;2.00;;
22480;SDS011;11407;56.964;-2.212;2024-03-02T00:53:08;3.30;;;1.97;;
22480;SDS011;11407;56.964;-2.212;2024-03-02T00:55:35;2.27;;;1.90;;
22480;SDS011;11407;56.964;-2.212;2024-03-02T00:58:02;4.27;;;1.70;;
22480;SDS011;11407;56.964;-2.212;2024-03-02T01:00:27;4.77;;;1.93;;
22480;SDS011;11407;56.964;-2.212;2024-03-02T01:02:52;4.37;;;2.20;;
22480;SDS011;11407;56.964;-2.212;2024-03-02T01:05:17;3.07;;;1.80;;
22480;SDS011;11407;56.964;-2.212;2024-03-02T01:07:43;3.10;;;1.80;;
22480;SDS011;11407;56.964;-2.212;2024-03-02T01:10:08;3.50;;;1.10;;
22480;SDS011;11407;56.964;-2.212;2024-03-02T01:12:34;3.27;;;0.83;;
22480;SDS011;11407;56.964;-2.212;2024-03-02T01:15:00;4.80;;;1.10;;
22480;SDS011;11407;56.964;-2.212;2024-03-02T01:17:25;6.03;;;0.83;;
22480;SDS011;11407;56.964;-2.212;2024-03-02T01:19:50;2.70;;;1.00;;
22480;SDS011;11407;56.964;-2.212;2024-03-02T01:22:15;2.67;;;0.90;;
22480;SDS011;11407;56.964;-2.212;2024-03-02T01:24:41;2.77;;;1.00;;
22480;SDS011;11407;56.964;-2.212;2024-03-02T01:27:07;4.13;;;1.07;;
22480;SDS011;11407;56.964;-2.212;2024-03-02T01:29:32;2.87;;;1.00;;
22480;SDS011;11407;56.964;-2.212;2024-03-02T01:31:58;2.97;;;0.77;;
22480;SDS011;11407;56.964;-2.212;2024-03-02T01:34:23;2.17;;;0.87;;
22480;SDS011;11407;56.964;-2.212;2024-03-02T01:36:48;1.23;;;0.57;;
22480;SDS011;11407;56.964;-2.212;2024-03-02T01:39:13;3.13;;;0.90;;
22480;SDS011;11407;56.964;-2.212;2024-03-02T01:41:39;3.57;;;1.50;;
22480;SDS011;11407;56.964;-2.212;2024-03-02T01:44:04;8.00;;;1.83;;
22480;SDS011;11407;56.964;-2.212;2024-03-02T01:46:29;10.40;;;1.50;;
22480;SDS011;11407;56.964;-2.212;2024-03-02T01:48:54;1.30;;;1.20;;
22480;SDS011;11407;56.964;-2.212;2024-03-02T01:51:20;3.43;;;1.00;;
22480;SDS011;11407;56.964;-2.212;2024-03-02T01:53:45;3.17;;;1.00;;
22480;SDS011;11407;56.964;-2.212;2024-03-02T01:56:10;2.47;;;1.17;;
22480;SDS011;11407;56.964;-2.212;2024-03-02T01:58:36;4.53;;;1.30;;
22480;SDS011;11407;56.964;-2.212;2024-03-02T02:01:01;7.33;;;2.20;;
22480;SDS011;11407;56.964;-2.212;2024-03-02T02:03:27;8.13;;;3.40;;
22480;SDS011;11407;56.964;-2.212;2024-03-02T02:05:52;6.83;;;2.67;;
22480;SDS011;11407;56.964;-2.212;2024-03-02T02:08:17;8.53;;;2.80;;
22480;SDS011;11407;56.964;-2.212;2024-03-02T02:10:43;7.17;;;2.97;;
22480;SDS011;11407;56.964;-2.212;2024-03-02T02:13:08;4.53;;;2.77;;
22480;SDS011;11407;56.964;-2.212;2024-03-02T02:15:33;8.27;;;3.23;;
22480;SDS011;11407;56.964;-2.212;2024-03-02T02:18:01;4.70;;;3.07;;
22480;SDS011;11407;56.964;-2.212;2024-03-02T02:20:26;5.37;;;2.60;;
22480;SDS011;11407;56.964;-2.212;2024-03-02T02:25:20;5.63;;;1.53;;
22480;SDS011;11407;56.964;-2.212;2024-03-02T02:27:45;2.53;;;1.30;;
22480;SDS011;11407;56.964;-2.212;2024-03-02T02:30:11;2.83;;;1.20;;
22480;SDS011;11407;56.964;-2.212;2024-03-02T02:32:36;2.73;;;1.00;;
22480;SDS011;11407;56.964;-2.212;2024-03-02T02:35:01;4.57;;;1.20;;
22480;SDS011;11407;56.964;-2.212;2024-03-02T02:37:27;5.20;;;1.50;;
22480;SDS011;11407;56.964;-2.212;2024-03-02T02:39:52;4.13;;;1.50;;
22480;SDS011;11407;56.964;-2.212;2024-03-02T02:42:17;3.00;;;1.40;;
22480;SDS011;11407;56.964;-2.212;2024-03-02T02:44:43;3.13;;;1.27;;
22480;SDS011;11407;56.964;-2.212;2024-03-02T02:47:08;2.00;;;1.27;;
22480;SDS011;11407;56.964;-2.212;2024-03-02T02:49:33;4.23;;;1.17;;
22480;SDS011;11407;56.964;-2.212;2024-03-02T02:51:58;5.13;;;1.37;;
22480;SDS011;11407;56.964;-2.212;2024-03-02T02:54:24;2.73;;;1.20;;
22480;SDS011;11407;56.964;-2.212;2024-03-02T02:56:49;1.40;;;1.23;;
22480;SDS011;11407;56.964;-2.212;2024-03-02T02:59:14;2.73;;;1.30;;
22480;SDS011;11407;56.964;-2.212;2024-03-02T03:01:39;3.17;;;1.43;;
22480;SDS011;11407;56.964;-2.212;2024-03-02T03:04:05;3.27;;;1.47;;
22480;SDS011;11407;56.964;-2.212;2024-03-02T03:06:30;2.03;;;1.20;;
22480;SDS011;11407;56.964;-2.212;2024-03-02T03:08:55;2.93;;;1.20;;
22480;SDS011;11407;56.964;-2.212;2024-03-02T03:11:20;2.80;;;1.10;;
22480;SDS011;11407;56.964;-2.212;2024-03-02T03:13:47;2.97;;;1.10;;
22480;SDS011;11407;56.964;-2.212;2024-03-02T03:16:13;1.37;;;1.13;;
22480;SDS011;11407;56.964;-2.212;2024-03-02T03:18:38;3.90;;;1.37;;
22480;SDS011;11407;56.964;-2.212;2024-03-02T03:21:03;2.73;;;1.10;;
22480;SDS011;11407;56.964;-2.212;2024-03-02T03:23:29;1.90;;;1.30;;
22480;SDS011;11407;56.964;-2.212;2024-03-02T03:25:54;2.13;;;1.20;;
22480;SDS011;11407;56.964;-2.212;2024-03-02T03:28:19;1.40;;;1.30;;
22480;SDS011;11407;56.964;-2.212;2024-03-02T03:30:44;1.57;;;1.20;;
22480;SDS011;11407;56.964;-2.212;2024-03-02T03:33:10;1.97;;;1.30;;
22480;SDS011;11407;56.964;-2.212;2024-03-02T03:35:36;1.40;;;1.30;;
22480;SDS011;11407;56.964;-2.212;2024-03-02T03:38:02;1.43;;;1.20;;
22480;SDS011;11407;56.964;-2.212;2024-03-02T03:40:27;2.60;;;1.53;;
22480;SDS011;11407;56.964;-2.212;2024-03-02T03:42:52;2.23;;;1.37;;
22480;SDS011;11407;56.964;-2.212;2024-03-02T03:45:18;1.63;;;1.37;;
22480;SDS011;11407;56.964;-2.212;2024-03-02T03:47:43;3.20;;;1.63;;
22480;SDS011;11407;56.964;-2.212;2024-03-02T03:50:08;3.53;;;1.60;;
22480;SDS011;11407;56.964;-2.212;2024-03-02T03:52:34;2.60;;;1.53;;
22480;SDS011;11407;56.964;-2.212;2024-03-02T03:54:59;2.97;;;1.80;;
22480;SDS011;11407;56.964;-2.212;2024-03-02T03:57:25;3.07;;;1.73;;
22480;SDS011;11407;56.964;-2.212;2024-03-02T03:59:51;3.20;;;1.90;;
22480;SDS011;11407;56.964;-2.212;2024-03-02T04:02:16;2.90;;;1.80;;
22480;SDS011;11407;56.964;-2.212;2024-03-02T04:04:42;2.63;;;1.90;;
22480;SDS011;11407;56.964;-2.212;2024-03-02T04:07:08;2.97;;;1.90;;
22480;SDS011;11407;56.964;-2.212;2024-03-02T04:09:33;3.07;;;1.80;;
22480;SDS011;11407;56.964;-2.212;2024-03-02T04:11:59;3.37;;;1.90;;
22480;SDS011;11407;56.964;-2.212;2024-03-02T04:14:24;2.87;;;1.87;;
22480;SDS011;11407;56.964;-2.212;2024-03-02T04:16:49;3.87;;;2.10;;
22480;SDS011;11407;56.964;-2.212;2024-03-02T04:19:14;2.50;;;2.00;;
22480;SDS011;11407;56.964;-2.212;2024-03-02T04:21:40;2.87;;;1.87;;
22480;SDS011;11407;56.964;-2.212;2024-03-02T04:24:05;3.17;;;1.80;;
22480;SDS011;11407;56.964;-2.212;2024-03-02T04:26:30;3.67;;;2.50;;
22480;SDS011;11407;56.964;-2.212;2024-03-02T04:28:55;3.60;;;2.17;;
22480;SDS011;11407;56.964;-2.212;2024-03-02T04:31:21;5.00;;;2.33;;
22480;SDS011;11407;56.964;-2.212;2024-03-02T04:33:46;3.30;;;2.17;;
22480;SDS011;11407;56.964;-2.212;2024-03-02T04:36:11;4.10;;;2.37;;
22480;SDS011;11407;56.964;-2.212;2024-03-02T04:38:37;4.57;;;2.40;;
22480;SDS011;11407;56.964;-2.212;2024-03-02T04:41:03;6.13;;;2.53;;
22480;SDS011;11407;56.964;-2.212;2024-03-02T04:43:28;4.90;;;2.50;;
22480;SDS011;11407;56.964;-2.212;2024-03-02T04:45:53;4.63;;;2.77;;
22480;SDS011;11407;56.964;-2.212;2024-03-02T04:48:19;5.10;;;2.53;;
22480;SDS011;11407;56.964;-2.212;2024-03-02T04:50:44;2.87;;;1.97;;
22480;SDS011;11407;56.964;-2.212;2024-03-02T04:53:09;7.47;;;2.90;;
22480;SDS011;11407;56.964;-2.212;2024-03-02T04:55:35;4.37;;;2.43;;
22480;SDS011;11407;56.964;-2.212;2024-03-02T04:58:00;3.40;;;2.30;;
22480;SDS011;11407;56.964;-2.212;2024-03-02T05:00:25;8.67;;;3.10;;
22480;SDS011;11407;56.964;-2.212;2024-03-02T05:02:50;4.67;;;2.87;;
22480;SDS011;11407;56.964;-2.212;2024-03-02T05:05:16;6.23;;;3.33;;
22480;SDS011;11407;56.964;-2.212;2024-03-02T05:07:41;4.20;;;2.80;;
22480;SDS011;11407;56.964;-2.212;2024-03-02T05:10:09;6.70;;;2.70;;
22480;SDS011;11407;56.964;-2.212;2024-03-02T05:12:35;4.67;;;3.03;;
22480;SDS011;11407;56.964;-2.212;2024-03-02T05:15:20;5.23;;;2.83;;
22480;SDS011;11407;56.964;-2.212;2024-03-02T05:17:46;5.27;;;3.10;;
22480;SDS011;11407;56.964;-2.212;2024-03-02T05:20:12;6.10;;;3.00;;
22480;SDS011;11407;56.964;-2.212;2024-03-02T05:22:37;5.83;;;3.40;;
22480;SDS011;11407;56.964;-2.212;2024-03-02T05:25:03;6.17;;;3.20;;
22480;SDS011;11407;56.964;-2.212;2024-03-02T05:27:28;8.63;;;3.13;;
22480;SDS011;11407;56.964;-2.212;2024-03-02T05:29:53;5.83;;;3.40;;
22480;SDS011;11407;56.964;-2.212;2024-03-02T05:32:19;6.23;;;3.07;;
22480;SDS011;11407;56.964;-2.212;2024-03-02T05:34:44;4.87;;;2.87;;
22480;SDS011;11407;56.964;-2.212;2024-03-02T05:37:09;5.80;;;3.10;;
22480;SDS011;11407;56.964;-2.212;2024-03-02T05:39:34;5.23;;;3.17;;
22480;SDS011;11407;56.964;-2.212;2024-03-02T05:42:00;5.50;;;3.40;;
22480;SDS011;11407;56.964;-2.212;2024-03-02T05:44:25;4.87;;;3.27;;
22480;SDS011;11407;56.964;-2.212;2024-03-02T05:46:50;7.30;;;3.17;;
22480;SDS011;11407;56.964;-2.212;2024-03-02T05:49:15;6.33;;;3.33;;
22480;SDS011;11407;56.964;-2.212;2024-03-02T05:51:41;6.43;;;2.90;;
22480;SDS011;11407;56.964;-2.212;2024-03-02T05:54:06;6.30;;;3.40;;
22480;SDS011;11407;56.964;-2.212;2024-03-02T05:56:32;7.53;;;3.40;;
22480;SDS011;11407;56.964;-2.212;2024-03-02T05:58:57;6.83;;;3.13;;
22480;SDS011;11407;56.964;-2.212;2024-03-02T06:01:34;5.83;;;3.23;;
22480;SDS011;11407;56.964;-2.212;2024-03-02T06:03:59;7.53;;;3.47;;
22480;SDS011;11407;56.964;-2.212;2024-03-02T06:06:24;8.37;;;3.63;;
22480;SDS011;11407;56.964;-2.212;2024-03-02T06:08:50;6.77;;;3.13;;
22480;SDS011;11407;56.964;-2.212;2024-03-02T06:11:15;5.57;;;3.10;;
22480;SDS011;11407;56.964;-2.212;2024-03-02T06:13:40;8.63;;;3.40;;
22480;SDS011;11407;56.964;-2.212;2024-03-02T06:16:06;11.93;;;3.47;;
22480;SDS011;11407;56.964;-2.212;2024-03-02T06:18:31;11.30;;;3.40;;
22480;SDS011;11407;56.964;-2.212;2024-03-02T06:20:56;6.70;;;2.83;;
22480;SDS011;11407;56.964;-2.212;2024-03-02T06:23:21;11.97;;;3.47;;
22480;SDS011;11407;56.964;-2.212;2024-03-02T06:25:47;7.60;;;3.40;;
22480;SDS011;11407;56.964;-2.212;2024-03-02T06:28:12;7.10;;;3.17;;
22480;SDS011;11407;56.964;-2.212;2024-03-02T06:30:40;5.93;;;2.60;;
22480;SDS011;11407;56.964;-2.212;2024-03-02T06:33:05;5.23;;;2.67;;
22480;SDS011;11407;56.964;-2.212;2024-03-02T06:35:31;5.57;;;2.90;;
22480;SDS011;11407;56.964;-2.212;2024-03-02T06:37:56;5.73;;;3.00;;
22480;SDS011;11407;56.964;-2.212;2024-03-02T06:40:21;8.23;;;3.60;;
22480;SDS011;11407;56.964;-2.212;2024-03-02T06:42:47;6.90;;;3.30;;
22480;SDS011;11407;56.964;-2.212;2024-03-02T06:45:12;6.60;;;3.10;;
22480;SDS011;11407;56.964;-2.212;2024-03-02T06:47:37;9.37;;;3.23;;
22480;SDS011;11407;56.964;-2.212;2024-03-02T06:50:02;9.40;;;4.47;;
22480;SDS011;11407;56.964;-2.212;2024-03-02T06:52:28;10.03;;;3.37;;
22480;SDS011;11407;56.964;-2.212;2024-03-02T06:54:53;10.20;;;3.37;;
22480;SDS011;11407;56.964;-2.212;2024-03-02T06:57:18;6.87;;;3.67;;
22480;SDS011;11407;56.964;-2.212;2024-03-02T06:59:45;6.70;;;3.27;;
22480;SDS011;11407;56.964;-2.212;2024-03-02T07:02:10;8.10;;;3.33;;
22480;SDS011;11407;56.964;-2.212;2024-03-02T07:04:36;10.13;;;4.30;;
22480;SDS011;11407;56.964;-2.212;2024-03-02T07:07:02;10.87;;;4.00;;
22480;SDS011;11407;56.964;-2.212;2024-03-02T07:09:27;8.17;;;3.67;;
22480;SDS011;11407;56.964;-2.212;2024-03-02T07:11:53;17.67;;;8.70;;
22480;SDS011;11407;56.964;-2.212;2024-03-02T07:14:18;18.70;;;10.57;;
22480;SDS011;11407;56.964;-2.212;2024-03-02T07:16:43;11.13;;;6.40;;
22480;SDS011;11407;56.964;-2.212;2024-03-02T07:19:09;11.27;;;5.47;;
22480;SDS011;11407;56.964;-2.212;2024-03-02T07:21:34;11.33;;;5.33;;
22480;SDS011;11407;56.964;-2.212;2024-03-02T07:23:59;13.27;;;5.80;;
22480;SDS011;11407;56.964;-2.212;2024-03-02T07:26:27;9.40;;;4.97;;
22480;SDS011;11407;56.964;-2.212;2024-03-02T07:28:53;10.00;;;4.53;;
22480;SDS011;11407;56.964;-2.212;2024-03-02T07:31:18;12.10;;;4.53;;
22480;SDS011;11407;56.964;-2.212;2024-03-02T07:33:44;13.33;;;4.40;;
22480;SDS011;11407;56.964;-2.212;2024-03-02T07:36:10;12.03;;;4.63;;
22480;SDS011;11407;56.964;-2.212;2024-03-02T07:38:35;11.53;;;4.67;;
22480;SDS011;11407;56.964;-2.212;2024-03-02T07:41:03;10.93;;;4.53;;
22480;SDS011;11407;56.964;-2.212;2024-03-02T07:43:34;11.13;;;4.10;;
22480;SDS011;11407;56.964;-2.212;2024-03-02T07:46:02;10.17;;;4.73;;
22480;SDS011;11407;56.964;-2.212;2024-03-02T07:48:31;8.90;;;4.57;;
22480;SDS011;11407;56.964;-2.212;2024-03-02T07:50:56;9.43;;;3.93;;
22480;SDS011;11407;56.964;-2.212;2024-03-02T07:53:22;12.90;;;4.43;;
22480;SDS011;11407;56.964;-2.212;2024-03-02T07:55:47;11.37;;;4.20;;
22480;SDS011;11407;56.964;-2.212;2024-03-02T07:58:12;11.77;;;4.33;;
22480;SDS011;11407;56.964;-2.212;2024-03-02T08:00:38;13.07;;;4.33;;
22480;SDS011;11407;56.964;-2.212;2024-03-02T08:03:04;13.83;;;4.80;;
22480;SDS011;11407;56.964;-2.212;2024-03-02T08:05:33;9.37;;;4.13;;
22480;SDS011;11407;56.964;-2.212;2024-03-02T08:07:58;13.30;;;4.43;;
22480;SDS011;11407;56.964;-2.212;2024-03-02T08:10:23;12.43;;;4.27;;
22480;SDS011;11407;56.964;-2.212;2024-03-02T08:12:48;9.83;;;4.20;;
22480;SDS011;11407;56.964;-2.212;2024-03-02T08:15:14;11.50;;;3.90;;
22480;SDS011;11407;56.964;-2.212;2024-03-02T08:17:39;10.33;;;5.00;;
22480;SDS011;11407;56.964;-2.212;2024-03-02T08:20:10;13.37;;;4.73;;
22480;SDS011;11407;56.964;-2.212;2024-03-02T08:22:36;8.70;;;4.60;;
22480;SDS011;11407;56.964;-2.212;2024-03-02T08:25:01;9.90;;;4.67;;
22480;SDS011;11407;56.964;-2.212;2024-03-02T08:27:27;10.43;;;4.63;;
22480;SDS011;11407;56.964;-2.212;2024-03-02T08:29:52;16.10;;;5.73;;
22480;SDS011;11407;56.964;-2.212;2024-03-02T08:32:17;9.87;;;4.37;;
22480;SDS011;11407;56.964;-2.212;2024-03-02T08:34:43;11.60;;;5.20;;
22480;SDS011;11407;56.964;-2.212;2024-03-02T08:37:08;11.60;;;4.60;;
22480;SDS011;11407;56.964;-2.212;2024-03-02T08:39:33;10.70;;;4.27;;
22480;SDS011;11407;56.964;-2.212;2024-03-02T08:41:58;13.13;;;5.40;;
22480;SDS011;11407;56.964;-2.212;2024-03-02T08:44:24;16.33;;;5.63;;
22480;SDS011;11407;56.964;-2.212;2024-03-02T08:46:49;10.57;;;4.33;;
22480;SDS011;11407;56.964;-2.212;2024-03-02T08:49:15;10.73;;;4.67;;
22480;SDS011;11407;56.964;-2.212;2024-03-02T08:51:40;11.60;;;4.70;;
22480;SDS011;11407;56.964;-2.212;2024-03-02T08:54:05;9.97;;;4.40;;
22480;SDS011;11407;56.964;-2.212;2024-03-02T08:56:31;9.50;;;4.50;;
22480;SDS011;11407;56.964;-2.212;2024-03-02T08:58:56;10.77;;;4.70;;
22480;SDS011;11407;56.964;-2.212;2024-03-02T09:01:21;11.03;;;4.60;;
22480;SDS011;11407;56.964;-2.212;2024-03-02T09:03:47;14.40;;;4.30;;
22480;SDS011;11407;56.964;-2.212;2024-03-02T09:06:14;8.77;;;4.00;;
22480;SDS011;11407;56.964;-2.212;2024-03-02T09:08:41;11.50;;;4.13;;
22480;SDS011;11407;56.964;-2.212;2024-03-02T09:11:07;8.93;;;4.30;;
22480;SDS011;11407;56.964;-2.212;2024-03-02T09:13:32;13.90;;;3.93;;
22480;SDS011;11407;56.964;-2.212;2024-03-02T09:15:58;7.17;;;3.87;;
22480;SDS011;11407;56.964;-2.212;2024-03-02T09:18:23;10.40;;;4.63;;
22480;SDS011;11407;56.964;-2.212;2024-03-02T09:20:48;10.30;;;4.43;;
22480;SDS011;11407;56.964;-2.212;2024-03-02T09:23:14;9.40;;;4.80;;
22480;SDS011;11407;56.964;-2.212;2024-03-02T09:25:39;13.33;;;6.07;;
22480;SDS011;11407;56.964;-2.212;2024-03-02T09:28:04;11.70;;;5.23;;
22480;SDS011;11407;56.964;-2.212;2024-03-02T09:30:30;15.20;;;5.80;;
22480;SDS011;11407;56.964;-2.212;2024-03-02T09:32:55;10.13;;;5.30;;
22480;SDS011;11407;56.964;-2.212;2024-03-02T09:35:21;12.03;;;6.07;;
22480;SDS011;11407;56.964;-2.212;2024-03-02T09:37:46;8.80;;;4.60;;
22480;SDS011;11407;56.964;-2.212;2024-03-02T09:40:11;9.50;;;4.20;;
22480;SDS011;11407;56.964;-2.212;2024-03-02T09:42:38;8.43;;;4.57;;
22480;SDS011;11407;56.964;-2.212;2024-03-02T09:45:03;9.57;;;5.80;;
22480;SDS011;11407;56.964;-2.212;2024-03-02T09:47:29;11.03;;;5.93;;
22480;SDS011;11407;56.964;-2.212;2024-03-02T09:49:54;7.87;;;4.67;;
22480;SDS011;11407;56.964;-2.212;2024-03-02T09:52:21;7.37;;;3.80;;
22480;SDS011;11407;56.964;-2.212;2024-03-02T09:54:47;6.80;;;3.83;;
22480;SDS011;11407;56.964;-2.212;2024-03-02T09:57:12;7.93;;;3.97;;
22480;SDS011;11407;56.964;-2.212;2024-03-02T09:59:38;22.23;;;9.10;;
22480;SDS011;11407;56.964;-2.212;2024-03-02T10:02:03;14.10;;;7.20;;
22480;SDS011;11407;56.964;-2.212;2024-03-02T10:04:29;27.97;;;11.27;;
22480;SDS011;11407;56.964;-2.212;2024-03-02T10:07:09;27.40;;;13.50;;
22480;SDS011;11407;56.964;-2.212;2024-03-02T10:09:36;12.33;;;6.37;;
22480;SDS011;11407;56.964;-2.212;2024-03-02T10:12:04;9.23;;;5.00;;
22480;SDS011;11407;56.964;-2.212;2024-03-02T10:14:30;10.83;;;4.80;;
22480;SDS011;11407;56.964;-2.212;2024-03-02T10:16:55;10.27;;;4.30;;
22480;SDS011;11407;56.964;-2.212;2024-03-02T10:19:26;11.67;;;4.30;;
22480;SDS011;11407;56.964;-2.212;2024-03-02T10:21:52;9.37;;;4.40;;
22480;SDS011;11407;56.964;-2.212;2024-03-02T10:24:18;10.33;;;4.27;;
22480;SDS011;11407;56.964;-2.212;2024-03-02T10:26:43;9.83;;;4.17;;
22480;SDS011;11407;56.964;-2.212;2024-03-02T10:29:11;7.77;;;4.40;;
22480;SDS011;11407;56.964;-2.212;2024-03-02T10:31:44;10.10;;;5.00;;
22480;SDS011;11407;56.964;-2.212;2024-03-02T10:34:09;9.67;;;4.93;;
22480;SDS011;11407;56.964;-2.212;2024-03-02T10:36:35;10.53;;;4.77;;
22480;SDS011;11407;56.964;-2.212;2024-03-02T10:39:04;12.37;;;6.10;;
22480;SDS011;11407;56.964;-2.212;2024-03-02T10:41:31;10.27;;;4.87;;
22480;SDS011;11407;56.964;-2.212;2024-03-02T10:43:57;10.20;;;4.40;;
22480;SDS011;11407;56.964;-2.212;2024-03-02T10:46:28;9.10;;;4.23;;
22480;SDS011;11407;56.964;-2.212;2024-03-02T10:48:54;8.83;;;3.83;;
22480;SDS011;11407;56.964;-2.212;2024-03-02T10:51:20;11.40;;;4.60;;
22480;SDS011;11407;56.964;-2.212;2024-03-02T10:53:45;9.83;;;4.63;;
22480;SDS011;11407;56.964;-2.212;2024-03-02T10:56:10;9.13;;;4.13;;
22480;SDS011;11407;56.964;-2.212;2024-03-02T10:58:41;10.40;;;4.07;;
22480;SDS011;11407;56.964;-2.212;2024-03-02T11:01:06;11.03;;;4.50;;
22480;SDS011;11407;56.964;-2.212;2024-03-02T11:03:33;10.63;;;4.40;;
22480;SDS011;11407;56.964;-2.212;2024-03-02T11:06:00;11.07;;;4.07;;
22480;SDS011;11407;56.964;-2.212;2024-03-02T11:08:25;10.37;;;4.07;;
22480;SDS011;11407;56.964;-2.212;2024-03-02T11:10:58;12.37;;;5.00;;
22480;SDS011;11407;56.964;-2.212;2024-03-02T11:13:31;8.07;;;4.47;;
22480;SDS011;11407;56.964;-2.212;2024-03-02T11:15:59;9.90;;;4.53;;
22480;SDS011;11407;56.964;-2.212;2024-03-02T11:18:24;10.57;;;4.30;;
22480;SDS011;11407;56.964;-2.212;2024-03-02T11:20:50;12.03;;;4.90;;
22480;SDS011;11407;56.964;-2.212;2024-03-02T11:23:16;8.73;;;4.43;;
22480;SDS011;11407;56.964;-2.212;2024-03-02T11:25:41;15.17;;;6.57;;
22480;SDS011;11407;56.964;-2.212;2024-03-02T11:28:06;11.13;;;5.40;;
22480;SDS011;11407;56.964;-2.212;2024-03-02T11:33:06;12.27;;;4.07;;
22480;SDS011;11407;56.964;-2.212;2024-03-02T11:35:34;9.73;;;4.03;;
22480;SDS011;11407;56.964;-2.212;2024-03-02T11:38:00;10.63;;;3.80;;
22480;SDS011;11407;56.964;-2.212;2024-03-02T11:40:26;7.67;;;2.93;;
22480;SDS011;11407;56.964;-2.212;2024-03-02T11:42:51;10.57;;;3.13;;
22480;SDS011;11407;56.964;-2.212;2024-03-02T11:45:17;7.67;;;2.90;;
22480;SDS011;11407;56.964;-2.212;2024-03-02T11:47:49;6.13;;;2.40;;
22480;SDS011;11407;56.964;-2.212;2024-03-02T11:50:15;5.63;;;1.90;;
22480;SDS011;11407;56.964;-2.212;2024-03-02T11:52:40;5.33;;;1.90;;
22480;SDS011;11407;56.964;-2.212;2024-03-02T11:55:06;2.23;;;1.30;;
22480;SDS011;11407;56.964;-2.212;2024-03-02T11:57:34;2.90;;;1.43;;
22480;SDS011;11407;56.964;-2.212;2024-03-02T12:00:00;5.13;;;1.73;;
22480;SDS011;11407;56.964;-2.212;2024-03-02T12:02:28;3.27;;;1.57;;
22480;SDS011;11407;56.964;-2.212;2024-03-02T12:04:54;3.70;;;1.50;;
22480;SDS011;11407;56.964;-2.212;2024-03-02T12:07:20;2.03;;;1.30;;
22480;SDS011;11407;56.964;-2.212;2024-03-02T12:09:46;2.13;;;1.30;;
22480;SDS011;11407;56.964;-2.212;2024-03-02T12:12:12;2.73;;;1.57;;
22480;SDS011;11407;56.964;-2.212;2024-03-02T12:14:39;5.20;;;2.23;;
22480;SDS011;11407;56.964;-2.212;2024-03-02T12:17:05;7.87;;;3.10;;
22480;SDS011;11407;56.964;-2.212;2024-03-02T12:19:30;4.93;;;2.03;;
22480;SDS011;11407;56.964;-2.212;2024-03-02T12:21:56;4.07;;;2.00;;
22480;SDS011;11407;56.964;-2.212;2024-03-02T12:24:22;5.37;;;2.43;;
22480;SDS011;11407;56.964;-2.212;2024-03-02T12:26:49;6.30;;;1.97;;
22480;SDS011;11407;56.964;-2.212;2024-03-02T12:29:14;2.50;;;1.63;;
22480;SDS011;11407;56.964;-2.212;2024-03-02T12:31:40;7.63;;;2.57;;
22480;SDS011;11407;56.964;-2.212;2024-03-02T12:34:05;7.70;;;2.63;;
22480;SDS011;11407;56.964;-2.212;2024-03-02T12:36:36;3.87;;;1.70;;
22480;SDS011;11407;56.964;-2.212;2024-03-02T12:39:01;2.13;;;1.37;;
22480;SDS011;11407;56.964;-2.212;2024-03-02T12:41:27;4.70;;;1.70;;
22480;SDS011;11407;56.964;-2.212;2024-03-02T12:43:52;5.03;;;1.87;;
22480;SDS011;11407;56.964;-2.212;2024-03-02T12:46:19;7.80;;;2.20;;
22480;SDS011;11407;56.964;-2.212;2024-03-02T12:48:44;3.67;;;1.60;;
22480;SDS011;11407;56.964;-2.212;2024-03-02T12:51:10;3.90;;;2.00;;
22480;SDS011;11407;56.964;-2.212;2024-03-02T12:53:35;8.73;;;2.10;;
22480;SDS011;11407;56.964;-2.212;2024-03-02T12:56:01;9.43;;;2.03;;
22480;SDS011;11407;56.964;-2.212;2024-03-02T12:58:26;2.87;;;1.60;;
22480;SDS011;11407;56.964;-2.212;2024-03-02T13:01:14;4.13;;;2.10;;
22480;SDS011;11407;56.964;-2.212;2024-03-02T13:03:39;4.20;;;2.10;;
22480;SDS011;11407;56.964;-2.212;2024-03-02T13:06:07;6.73;;;2.20;;
22480;SDS011;11407;56.964;-2.212;2024-03-02T13:08:33;5.10;;;1.80;;
22480;SDS011;11407;56.964;-2.212;2024-03-02T13:10:59;2.43;;;1.70;;
22480;SDS011;11407;56.964;-2.212;2024-03-02T13:13:24;5.67;;;2.30;;
22480;SDS011;11407;56.964;-2.212;2024-03-02T13:15:49;6.80;;;2.30;;
22480;SDS011;11407;56.964;-2.212;2024-03-02T13:18:17;9.07;;;2.23;;
22480;SDS011;11407;56.964;-2.212;2024-03-02T13:20:42;6.43;;;1.80;;
22480;SDS011;11407;56.964;-2.212;2024-03-02T13:23:08;4.07;;;2.00;;
22480;SDS011;11407;56.964;-2.212;2024-03-02T13:25:33;7.37;;;2.30;;
22480;SDS011;11407;56.964;-2.212;2024-03-02T13:27:59;6.47;;;2.20;;
22480;SDS011;11407;56.964;-2.212;2024-03-02T13:30:24;3.73;;;2.30;;
22480;SDS011;11407;56.964;-2.212;2024-03-02T13:32:49;10.17;;;2.60;;
22480;SDS011;11407;56.964;-2.212;2024-03-02T13:35:15;8.27;;;2.30;;
22480;SDS011;11407;56.964;-2.212;2024-03-02T13:37:40;8.20;;;2.07;;
22480;SDS011;11407;56.964;-2.212;2024-03-02T13:40:05;9.83;;;1.97;;
22480;SDS011;11407;56.964;-2.212;2024-03-02T13:42:31;8.17;;;1.83;;
22480;SDS011;11407;56.964;-2.212;2024-03-02T13:44:56;3.60;;;1.53;;
22480;SDS011;11407;56.964;-2.212;2024-03-02T13:47:22;6.20;;;1.70;;
22480;SDS011;11407;56.964;-2.212;2024-03-02T13:49:47;2.83;;;1.63;;
22480;SDS011;11407;56.964;-2.212;2024-03-02T13:52:14;4.73;;;1.60;;
22480;SDS011;11407;56.964;-2.212;2024-03-02T13:54:39;3.03;;;1.50;;
22480;SDS011;11407;56.964;-2.212;2024-03-02T13:57:05;5.43;;;2.10;;
22480;SDS011;11407;56.964;-2.212;2024-03-02T13:59:30;2.87;;;2.00;;
22480;SDS011;11407;56.964;-2.212;2024-03-02T14:01:56;6.67;;;2.37;;
22480;SDS011;11407;56.964;-2.212;2024-03-02T14:04:21;3.57;;;1.90;;
22480;SDS011;11407;56.964;-2.212;2024-03-02T14:06:46;6.33;;;1.87;;
22480;SDS011;11407;56.964;-2.212;2024-03-02T14:09:12;9.93;;;2.20;;
22480;SDS011;11407;56.964;-2.212;2024-03-02T14:11:38;7.13;;;2.27;;
22480;SDS011;11407;56.964;-2.212;2024-03-02T14:14:03;8.13;;;3.23;;
22480;SDS011;11407;56.964;-2.212;2024-03-02T14:16:28;5.27;;;2.83;;
22480;SDS011;11407;56.964;-2.212;2024-03-02T14:18:53;10.70;;;3.00;;
22480;SDS011;11407;56.964;-2.212;2024-03-02T14:21:19;7.97;;;2.10;;
22480;SDS011;11407;56.964;-2.212;2024-03-02T14:23:44;8.93;;;1.60;;
22480;SDS011;11407;56.964;-2.212;2024-03-02T14:26:09;4.70;;;1.60;;
22480;SDS011;11407;56.964;-2.212;2024-03-02T14:28:34;4.90;;;1.50;;
22480;SDS011;11407;56.964;-2.212;2024-03-02T14:31:00;3.90;;;1.20;;
22480;SDS011;11407;56.964;-2.212;2024-03-02T14:33:26;3.63;;;1.30;;